createdAt,value
2019-04-05T00:01:27.597Z,43.02
2019-04-05T00:06:35.402Z,43.18
2019-04-05T00:11:42.575Z,43.18
2019-04-05T00:16:49.464Z,43.32
2019-04-05T00:21:56.596Z,43.41
2019-04-05T00:27:03.650Z,43.67
2019-04-05T00:32:10.595Z,43.54
2019-04-05T00:37:17.587Z,43.86
2019-04-05T00:42:24.593Z,44.12
2019-04-05T00:47:31.591Z,44.32
2019-04-05T00:52:38.591Z,44.58
2019-04-05T00:57:45.606Z,44.89
2019-04-05T01:02:53.586Z,44.89
2019-04-05T01:08:00.942Z,45.23
2019-04-05T01:13:08.502Z,45.62
2019-04-05T01:18:15.657Z,46.36
2019-04-05T01:23:24.040Z,46.88
2019-04-05T01:28:30.264Z,46.88
2019-04-05T01:33:37.639Z,47.03
2019-04-05T01:38:44.598Z,47.32
2019-04-05T01:43:51.592Z,47.57
2019-04-05T01:48:58.468Z,47.81
2019-04-05T01:54:05.598Z,47.81
2019-04-05T01:59:12.487Z,48.21
2019-04-05T02:04:19.585Z,48.21
2019-04-05T02:09:26.595Z,48.54
2019-04-05T02:14:33.605Z,48.54
2019-04-05T02:19:40.585Z,48.64
2019-04-05T02:24:47.601Z,48.58
2019-04-05T02:29:54.609Z,48.89
2019-04-05T02:35:01.543Z,49.05
2019-04-05T02:40:14.081Z,49.05
2019-04-05T02:45:22.120Z,49.31
2019-04-05T02:50:33.371Z,49.44
2019-04-05T02:55:43.117Z,49.59
2019-04-05T03:00:50.570Z,49.82
2019-04-05T03:05:58.390Z,50.14
2019-04-05T03:11:10.564Z,50.14
2019-04-05T03:16:39.367Z,50.42
2019-04-05T03:21:38.231Z,50.68
2019-04-05T03:26:52.320Z,50.68
2019-04-05T03:31:59.474Z,50.77
2019-04-05T03:37:06.564Z,50.89
2019-04-05T03:42:13.933Z,50.99
2019-04-05T03:47:21.253Z,51.06
2019-04-05T03:52:28.595Z,51.17
2019-04-05T03:57:35.609Z,51.27
2019-04-05T04:05:40.790Z,50.66
2019-04-05T04:10:49.514Z,51.28
2019-04-05T04:15:57.259Z,51.49
2019-04-05T04:26:30.460Z,51.66
2019-04-05T04:31:37.506Z,51.92
2019-04-05T04:36:44.611Z,52.01
2019-04-05T04:42:40.883Z,51.75
2019-04-05T04:47:48.677Z,52.30
2019-04-05T04:57:31.092Z,51.55
2019-04-05T05:02:38.569Z,52.52
2019-04-05T05:12:50.169Z,52.76
2019-04-05T05:17:58.948Z,52.78
2019-04-05T05:26:23.048Z,51.99
2019-04-05T05:32:48.055Z,52.08
2019-04-05T05:37:55.454Z,52.58
2019-04-05T05:43:02.506Z,52.54
2019-04-05T05:48:09.709Z,52.49
2019-04-05T05:53:16.574Z,52.56
2019-04-05T05:58:25.375Z,52.80
2019-04-05T06:03:32.474Z,52.80
2019-04-05T06:08:39.467Z,54.36
2019-04-05T06:19:51.716Z,55.97
2019-04-05T06:24:58.557Z,57.76
2019-04-05T06:30:06.467Z,58.40
2019-04-05T06:35:13.448Z,59.21
2019-04-05T06:40:55.448Z,59.86
2019-04-05T06:48:42.572Z,61.92
2019-04-05T06:55:54.623Z,62.34
2019-04-05T07:06:28.247Z,62.99
2019-04-05T07:11:36.383Z,63.98
2019-04-05T07:16:43.432Z,64.11
2019-04-05T07:21:50.454Z,64.09
2019-04-05T07:27:35.613Z,63.93
2019-04-05T07:32:43.560Z,64.25
2019-04-05T07:41:21.039Z,63.41
2019-04-05T07:53:35.468Z,63.01
2019-04-05T08:10:54.253Z,64.23
2019-04-05T08:16:02.264Z,63.96
2019-04-05T08:21:09.490Z,63.90
2019-04-05T08:26:16.546Z,63.72
2019-04-05T08:31:23.591Z,62.93
2019-04-05T08:36:32.649Z,62.93
2019-04-05T08:42:59.692Z,62.68
2019-04-05T08:48:06.632Z,62.22
2019-04-05T08:55:23.753Z,61.74
2019-04-05T09:00:30.579Z,61.30
2019-04-05T09:06:21.635Z,60.92
2019-04-05T09:16:40.645Z,60.58
2019-04-05T09:21:47.567Z,59.85
2019-04-05T09:26:54.597Z,60.25
2019-04-05T09:32:01.462Z,60.25
2019-04-05T09:37:08.459Z,60.18
2019-04-05T09:44:25.692Z,60.22
2019-04-05T09:49:37.126Z,60.12
2019-04-05T09:54:41.590Z,60.10
2019-04-05T09:59:48.434Z,60.22
2019-04-05T10:10:02.664Z,60.33
2019-04-05T10:25:59.422Z,57.99
2019-04-05T10:31:06.585Z,59.37
2019-04-05T10:36:13.493Z,59.30
2019-04-05T10:41:22.909Z,59.30
2019-04-05T10:46:29.441Z,59.29
2019-04-05T10:51:36.461Z,58.38
2019-04-05T10:56:43.517Z,58.38
2019-04-05T11:01:50.519Z,58.08
2019-04-05T11:06:57.443Z,57.70
2019-04-05T11:12:04.579Z,56.71
2019-04-05T11:17:11.453Z,53.90
2019-04-05T11:27:11.442Z,54.46
2019-04-05T11:32:18.564Z,52.82
2019-04-05T11:37:25.596Z,52.54
2019-04-05T11:48:34.502Z,49.63
2019-04-05T11:53:41.483Z,49.63
2019-04-05T11:58:50.268Z,48.96
2019-04-05T12:08:36.434Z,48.47
2019-04-05T12:13:43.498Z,48.04
2019-04-05T12:25:56.060Z,44.39
2019-04-05T12:31:03.468Z,44.00
2019-04-05T12:36:58.113Z,41.55
2019-04-05T12:44:24.490Z,40.44
2019-04-05T12:49:31.494Z,40.44
2019-04-05T12:58:43.857Z,41.86
2019-04-05T13:03:51.388Z,38.60
2019-04-05T13:08:58.673Z,37.08
2019-04-05T13:14:05.607Z,36.16
2019-04-05T13:19:12.593Z,35.90
2019-04-05T13:24:19.469Z,35.45
2019-04-05T13:36:28.898Z,34.94
2019-04-05T13:41:35.647Z,34.94
2019-04-05T13:48:09.767Z,35.79
2019-04-05T13:57:28.398Z,37.29
2019-04-05T14:04:17.024Z,36.75
2019-04-05T14:09:24.607Z,36.18
2019-04-05T14:14:31.496Z,37.30
2019-04-05T14:19:38.460Z,37.30
2019-04-05T14:29:17.744Z,37.49
2019-04-05T14:35:00.901Z,37.44
2019-04-05T14:40:10.526Z,37.44
2019-04-05T14:54:14.525Z,38.39
2019-04-05T15:03:14.675Z,39.24
2019-04-05T15:08:21.584Z,38.64
2019-04-05T15:13:28.590Z,39.02
2019-04-05T15:18:35.464Z,39.07
2019-04-05T15:27:03.688Z,39.65
2019-04-05T15:38:40.717Z,40.29
2019-04-05T15:43:47.624Z,40.14
2019-04-05T15:50:44.686Z,40.53
2019-04-05T15:55:51.572Z,41.11
2019-04-05T16:00:58.689Z,41.46
2019-04-05T16:09:46.653Z,41.61
2019-04-05T16:14:53.607Z,42.47
2019-04-05T16:25:08.687Z,42.67
2019-04-05T16:30:16.032Z,41.80
2019-04-05T16:35:23.238Z,41.80
2019-04-05T16:40:31.452Z,42.59
2019-04-05T16:53:00.582Z,45.27
2019-04-05T16:58:07.594Z,46.48
2019-04-05T17:03:14.630Z,46.95
2019-04-05T17:12:54.678Z,46.62
2019-04-05T17:18:01.698Z,47.77
2019-04-05T17:32:01.671Z,49.01
2019-04-05T17:37:08.437Z,49.89
2019-04-05T17:42:15.578Z,49.89
2019-04-05T17:47:22.452Z,50.90
2019-04-05T17:52:29.587Z,50.90
2019-04-05T17:57:36.565Z,51.48
2019-04-05T18:02:43.463Z,51.48
2019-04-05T18:07:50.591Z,52.06
2019-04-05T18:12:57.927Z,53.51
2019-04-05T18:18:04.921Z,53.51
2019-04-05T18:23:23.933Z,53.47
2019-04-05T18:28:20.449Z,54.31
2019-04-05T18:33:28.556Z,54.20
2019-04-05T18:38:35.703Z,54.20
2019-04-05T18:43:42.560Z,54.13
2019-04-05T18:48:49.450Z,54.91
2019-04-05T18:53:56.459Z,54.91
2019-04-05T18:59:03.656Z,55.53
2019-04-05T19:04:10.605Z,56.11
2019-04-05T19:09:18.585Z,56.39
2019-04-05T19:14:25.486Z,56.69
2019-04-05T19:19:32.580Z,56.69
2019-04-05T19:24:39.591Z,56.98
2019-04-05T19:29:46.453Z,57.54
2019-04-05T19:50:20.477Z,58.47
2019-04-05T19:59:42.892Z,58.80
2019-04-05T20:04:49.580Z,59.40
2019-04-05T20:09:56.586Z,59.32
2019-04-05T20:15:03.471Z,59.12
2019-04-05T20:25:32.263Z,59.51
2019-04-05T20:35:02.707Z,59.50
2019-04-05T20:44:16.000Z,59.78
2019-04-05T20:56:02.447Z,59.75
2019-04-05T21:01:09.463Z,59.71
2019-04-05T21:06:17.304Z,59.86
2019-04-05T21:11:27.052Z,59.99
2019-04-05T21:20:28.584Z,60.32
2019-04-05T21:25:35.588Z,60.78
2019-04-05T21:32:43.599Z,60.73
2019-04-05T21:39:29.640Z,60.95
2019-04-05T21:49:52.448Z,62.12
2019-04-05T21:54:59.675Z,62.12
2019-04-05T22:00:45.867Z,62.02
2019-04-05T22:05:53.586Z,61.92
2019-04-05T22:11:00.576Z,63.46
2019-04-05T22:25:56.588Z,62.74
2019-04-05T22:31:03.591Z,63.94
2019-04-05T22:36:10.598Z,64.24
2019-04-05T22:41:17.467Z,63.96
2019-04-05T22:46:24.575Z,63.96
2019-04-05T22:51:31.556Z,63.60
2019-04-05T23:01:45.582Z,63.09
2019-04-05T23:11:35.632Z,63.11
2019-04-05T23:17:57.697Z,63.36
2019-04-05T23:23:05.638Z,64.29
2019-04-05T23:31:46.121Z,63.67
2019-04-05T23:36:53.470Z,64.40
2019-04-05T23:42:00.509Z,64.40
2019-04-05T23:47:07.487Z,64.33
2019-04-05T23:52:14.582Z,64.04
2019-04-05T23:57:21.506Z,63.45
